Home > Products > Valid Products > MTR

000
SAUS44 KLCH 230154
MTRP92
METAR KP92 230153Z AUTO 00000KT 29/25 A2999 RMK AO1 SLP156 T02890250





000
SAUS44 KLCH 230054
MTRP92
METAR KP92 230053Z AUTO 36003KT 30/26 A2998 RMK AO1 SLP150 T03000256





000
SAUS44 KLCH 222354
MTRP92
METAR KP92 222353Z AUTO 00000KT 31/24 A2999 RMK AO1 SLP155 T03110244
10328 20306 53000





000
SAUS44 KLCH 222254
MTRP92
METAR KP92 222253Z AUTO 14003KT 33/24 A2998 RMK AO1 SLP152 T03280244





000
SAUS44 KLCH 222155
MTRP92
METAR KP92 222153Z AUTO 13003KT 31/25 A2998 RMK AO1 SLP151 T03110250





000
SAUS44 KLCH 222054
MTRP92
METAR KP92 222053Z AUTO 00000KT 31/26 A2999 RMK AO1 SLP155 T03060256
58012





000
SAUS44 KLCH 221955
MTRP92
METAR KP92 221953Z AUTO VRB04KT 32/26 A3000 RMK AO1 SLP158 T03220256





000
SAUS44 KLCH 221855
MTRP92
METAR KP92 221853Z AUTO VRB04KT 32/26 A3002 RMK AO1 SLP164 T03220261





000
SAUS44 KLCH 221755
MTRP92
METAR KP92 221753Z AUTO VRB04KT 32/27 A3002 RMK AO1 SLP166 T03220267
10322 20267





000
SAUS44 KLCH 221655
MTRP92
METAR KP92 221653Z AUTO VRB03KT 31/26 A3003 RMK AO1 SLP168 T03110256





000
SAUS44 KLCH 221554
MTRP92
METAR KP92 221553Z AUTO 00000KT 31/26 A3003 RMK AO1 SLP168 T03060256





000
SAUS44 KLCH 221454
MTRP92
METAR KP92 221453Z AUTO 29003KT 31/26 A3003 RMK AO1 SLP168 T03060256
53005





000
SAUS44 KLCH 221354
MTRP92
METAR KP92 221353Z AUTO VRB03KT 30/25 A3002 RMK AO1 SLP164 T03000250





000
SAUS44 KLCH 221254
MTRP92
METAR KP92 221253Z AUTO 00000KT 29/25 A3002 RMK AO1 SLP165 T02890250





000
SAUS44 KLCH 221154
MTRP92
METAR KP92 221153Z AUTO 11003KT 27/25 A3001 RMK AO1 SLP163 T02670250
10283 20267 51010





000
SAUS44 KLCH 221054
MTRP92
METAR KP92 221053Z AUTO 00000KT 27/25 A3000 RMK AO1 SLP159 T02670250





000
SAUS44 KLCH 220954
MTRP92
METAR KP92 220953Z AUTO 00000KT 27/25 A3000 RMK AO1 SLP158 T02670250





000
SAUS44 KLCH 220854
MTRP92
METAR KP92 220853Z AUTO 00000KT 27/25 A2998 RMK AO1 SLP153 T02670250
55004





000
SAUS44 KLCH 220755
MTRP92
METAR KP92 220753Z AUTO 00000KT 28/25 A2998 RMK AO1 SLP151 T02780250





000
SAUS44 KLCH 220654
MTRP92
METAR KP92 220653Z AUTO 00000KT 28/26 A2999 RMK AO1 SLP153 T02780256





000
SAUS44 KLCH 220554
MTRP92
METAR KP92 220553Z AUTO 00000KT 28/27 A3000 RMK AO1 SLP157 T02830267
10311 20283 403280278 50001





000
SAUS44 KLCH 220454
MTRP92
METAR KP92 220453Z AUTO 00000KT 28/27 A3000 RMK AO1 SLP158 T02830267





000
SAUS44 KLCH 220354
MTRP92
METAR KP92 220353Z AUTO 00000KT 29/26 A2999 RMK AO1 SLP156 T02940261





000
SAUS44 KLCH 220254
MTRP92
METAR KP92 220253Z AUTO 00000KT 30/27 A2999 RMK AO1 SLP156 T03000267
53007





000
SAUS44 KLCH 220155
MTRP92
METAR KP92 220153Z AUTO 00000KT 29/26 A2998 RMK AO1 SLP153 T02890261





000
SAUS44 KLCH 220055
MTRP92
METAR KP92 220053Z AUTO 00000KT 30/26 A2998 RMK AO1 SLP150 T03000261





000
SAUS44 KLCH 212355
MTRP92
METAR KP92 212353Z AUTO 00000KT 31/27 A2997 RMK AO1 SLP149 T03060267
10328 20289 58007





000
SAUS44 KLCH 212254
MTRP92
METAR KP92 212253Z AUTO 35005KT 29/26 A2999 RMK AO1 SLP154 T02890261





000
SAUS44 KLCH 212154
MTRP92
METAR KP92 212153Z AUTO 27005KT 32/27 A2999 RMK AO1 SLP154 T03220267





000
SAUS44 KLCH 212055
MTRP92
METAR KP92 212053Z AUTO 25008KT 32/26 A2999 RMK AO1 SLP156 T03220261
58016





000
SAUS44 KLCH 211955
MTRP92
METAR KP92 211953Z AUTO 26004KT 33/26 A3002 RMK AO1 SLP164 T03280256





000
SAUS44 KLCH 211854
MTRP92
METAR KP92 211853Z AUTO VRB03KT 32/26 A3003 RMK AO1 SLP167 T03220261





000
SAUS44 KLCH 211755
MTRP92
METAR KP92 211753Z AUTO VRB05KT 32/26 A3004 RMK AO1 SLP172 T03170256
10317 20278 58002





000
SAUS44 KLCH 211655
MTRP92
METAR KP92 211653Z AUTO VRB05KT 31/26 A3005 RMK AO1 SLP175 T03060261





000
SAUS44 KLCH 211555
MTRP92
METAR KP92 211553Z AUTO VRB05KT 30/26 A3005 RMK AO1 SLP176 T03000261





000
SAUS44 KLCH 211455
MTRP92
METAR KP92 211453Z AUTO VRB03KT 30/26 A3005 RMK AO1 SLP174 T03000261
51010





000
SAUS44 KLCH 211355
MTRP92
METAR KP92 211353Z AUTO 00000KT 29/26 A3004 RMK AO1 SLP173 T02940261





000
SAUS44 KLCH 211254
MTRP92
METAR KP92 211253Z AUTO 00000KT 28/26 A3003 RMK AO1 SLP169 T02830261





000
SAUS44 KLCH 211154
MTRP92
METAR KP92 211153Z AUTO 00000KT 28/26 A3002 RMK AO1 SLP165 T02780261
10294 20278 53015





000
SAUS44 KLCH 211055
MTRP92
METAR KP92 211053Z AUTO 28004KT 28/26 A3000 RMK AO1 SLP158 T02830256





000
SAUS44 KLCH 210954
MTRP92
METAR KP92 210953Z AUTO 00000KT 29/26 A2999 RMK AO1 SLP154 T02890261





000
SAUS44 KLCH 210854
MTRP92
METAR KP92 210853Z AUTO 25005KT 29/26 A2997 RMK AO1 SLP149 T02890256
58001





000
SAUS44 KLCH 210754
MTRP92
METAR KP92 210753Z AUTO 25005KT 29/26 A2998 RMK AO1 SLP150 T02890261





000
SAUS44 KLCH 210655
MTRP92
METAR KP92 210653Z AUTO 23004KT 29/27 A2998 RMK AO1 SLP150 T02890267





000
SAUS44 KLCH 210554
MTRP92
METAR KP92 210553Z AUTO 23003KT 29/26 A2998 RMK AO1 SLP150 T02890261
10300 20283 403060261 58000





000
SAUS44 KLCH 210454
MTRP92
METAR KP92 210453Z AUTO 00000KT 28/26 A2998 RMK AO1 SLP152 T02830256





000
SAUS44 KLCH 210354
MTRP92
METAR KP92 210353Z AUTO VRB03KT 29/26 A2998 RMK AO1 SLP152 T02890256





000
SAUS44 KLCH 210255
MTRP92
METAR KP92 210253Z AUTO VRB04KT 29/26 A2998 RMK AO1 SLP150 T02890256
51006





000
SAUS44 KLCH 210154
MTRP92
METAR KP92 210153Z AUTO 00000KT 29/26 A2997 RMK AO1 SLP148 T02890256





000
SAUS44 KLCH 210054
MTRP92
METAR KP92 210053Z AUTO VRB03KT 29/26 A2997 RMK AO1 SLP147 T02890256





000
SAUS44 KLCH 202355
MTRP92
METAR KP92 202353Z AUTO VRB04KT 30/26 A2996 RMK AO1 SLP144 T03000256
10306 20283 58012





000
SAUS44 KLCH 202254
MTRP92
METAR KP92 202253Z AUTO VRB03KT 30/26 A2997 RMK AO1 SLP149 T03000261





000
SAUS44 KLCH 202155
MTRP92
METAR KP92 202153Z AUTO 25003KT 29/26 A2999 RMK AO1 SLP154 T02940261





000
SAUS44 KLCH 202054
MTRP92
METAR KP92 202053Z AUTO VRB04KT 31/26 A2999 RMK AO1 SLP156 T03060261
58005





000
SAUS44 KLCH 201954
MTRP92
METAR KP92 201953Z AUTO VRB04KT 29/26 A3000 RMK AO1 SLP158 T02890256





000
SAUS44 KLCH 201854
MTRP92
METAR KP92 201853Z AUTO VRB04KT 29/26 A3001 RMK AO1 SLP161 T02890256





000
SAUS44 KLCH 201754
MTRP92
METAR KP92 201753Z AUTO 23005KT 28/25 A3001 RMK AO1 SLP160 T02830250
10289 20261 50001





000
SAUS44 KLCH 201655
MTRP92
METAR KP92 201653Z AUTO 25010G16KT 28/25 A3002 RMK AO1 SLP166
T02830250





000
SAUS44 KLCH 201555
MTRP92
METAR KP92 201553Z AUTO VRB05KT 27/24 A3002 RMK AO1 SLP166 T02670239





000
SAUS44 KLCH 201455
MTRP92
METAR KP92 201453Z AUTO 00000KT 29/26 A3000 RMK AO1 SLP160 T02890256
50004





000
SAUS44 KLCH 201354
MTRP92
METAR KP92 201353Z AUTO VRB03KT 27/24 A3002 RMK AO1 SLP164 T02720244





000
SAUS44 KLCH 201254
MTRP92
METAR KP92 201253Z AUTO 00000KT 28/26 A3001 RMK AO1 SLP162 T02780261





000
SAUS44 KLCH 201154
MTRP92
METAR KP92 201153Z AUTO 00000KT 27/25 A2999 RMK AO1 SLP156 T02670250
10272 20267 53007





000
SAUS44 KLCH 201054
MTRP92
METAR KP92 201053Z AUTO 00000KT 27/25 A2998 RMK AO1 SLP150 T02670250





000
SAUS44 KLCH 200955
MTRP92
METAR KP92 200953Z AUTO 00000KT 27/26 A2997 RMK AO1 SLP149 T02720256





000
SAUS44 KLCH 200854
MTRP92
METAR KP92 200853Z AUTO 00000KT 27/26 A2997 RMK AO1 SLP149 T02720256
55005





000
SAUS44 KLCH 200754
MTRP92
METAR KP92 200753Z AUTO 00000KT 27/26 A2996 RMK AO1 SLP145 T02720256





000
SAUS44 KLCH 200655
MTRP92
METAR KP92 200653Z AUTO 00000KT 27/26 A2997 RMK AO1 SLP150 T02720256





000
SAUS44 KLCH 200555
MTRP92
METAR KP92 200553Z AUTO 00000KT 27/26 A2999 RMK AO1 SLP154 T02720256
10289 20272 403110244 58002





000
SAUS44 KLCH 200455
MTRP92
METAR KP92 200453Z AUTO 00000KT 27/26 A2999 RMK AO1 SLP155 T02720256





000
SAUS44 KLCH 200354
MTRP92
METAR KP92 200353Z AUTO 00000KT 27/26 A2999 RMK AO1 SLP154 T02720256





    US Dept of Commerce
    National Oceanic and Atmospheric Administration
    National Weather Service
    1325 East West Highway
    Silver Spring, MD 20910
    Page Author: NWS Internet Services Team
Disclaimer
Information Quality
Credits
Glossary
Privacy Policy
Freedom of Information Act (FOIA)
About Us
Career Opportunities